createdAt,value
2023-12-11T00:01:51.089Z,79.51
2023-12-11T00:04:18.514Z,80.08
2023-12-11T00:06:45.580Z,80.75
2023-12-11T00:09:14.041Z,81.29
2023-12-11T00:11:41.242Z,81.49
2023-12-11T00:14:08.181Z,79.75
2023-12-11T00:16:35.185Z,78.69
2023-12-11T00:19:02.812Z,79.42
2023-12-11T00:21:30.156Z,80.16
2023-12-11T00:23:57.391Z,81.45
2023-12-11T00:26:24.335Z,81.33
2023-12-11T00:28:51.275Z,79.85
2023-12-11T00:31:18.634Z,78.99
2023-12-11T00:33:46.016Z,78.77
2023-12-11T00:36:13.139Z,79.30
2023-12-11T00:38:40.073Z,79.64
2023-12-11T00:41:08.272Z,81.35
2023-12-11T00:43:44.794Z,81.30
2023-12-11T00:46:14.935Z,80.07
2023-12-11T00:48:42.125Z,79.44
2023-12-11T00:51:19.425Z,79.73
2023-12-11T00:53:46.842Z,80.31
2023-12-11T00:56:14.403Z,80.73
2023-12-11T00:58:41.258Z,80.65
2023-12-11T01:01:08.402Z,79.50
2023-12-11T01:03:36.701Z,79.28
2023-12-11T01:06:04.011Z,79.28
2023-12-11T01:08:31.061Z,79.68
2023-12-11T01:10:58.221Z,80.73
2023-12-11T01:13:25.772Z,81.01
2023-12-11T01:15:52.899Z,78.88
2023-12-11T01:18:20.152Z,77.66
2023-12-11T01:20:47.117Z,77.57
2023-12-11T01:23:14.067Z,78.21
2023-12-11T01:25:41.417Z,79.02
2023-12-11T01:28:08.895Z,79.65
2023-12-11T01:30:36.363Z,79.57
2023-12-11T01:33:04.328Z,78.20
2023-12-11T01:35:34.825Z,77.29
2023-12-11T01:38:01.771Z,76.92
2023-12-11T01:40:29.438Z,77.75
2023-12-11T01:43:06.942Z,78.56
2023-12-11T01:45:38.365Z,79.68
2023-12-11T01:48:06.492Z,78.96
2023-12-11T01:50:33.616Z,77.63
2023-12-11T01:53:00.439Z,77.49
2023-12-11T01:55:27.307Z,78.13
2023-12-11T01:57:54.260Z,78.96
2023-12-11T02:00:21.263Z,80.29
2023-12-11T02:02:48.119Z,81.10
2023-12-11T02:05:15.295Z,79.08
2023-12-11T02:07:42.440Z,78.52
2023-12-11T02:10:10.046Z,79.08
2023-12-11T02:12:37.289Z,80.06
2023-12-11T02:15:04.896Z,80.97
2023-12-11T02:17:32.199Z,81.56
2023-12-11T02:19:59.676Z,79.69
2023-12-11T02:22:26.742Z,78.53
2023-12-11T02:24:57.015Z,78.57
2023-12-11T02:27:24.037Z,79.73
2023-12-11T02:29:54.244Z,80.77
2023-12-11T02:32:21.316Z,81.99
2023-12-11T02:34:49.339Z,80.91
2023-12-11T02:37:16.704Z,79.12
2023-12-11T02:39:45.248Z,79.40
2023-12-11T02:42:12.125Z,80.33
2023-12-11T02:44:39.323Z,81.51
2023-12-11T02:47:06.223Z,82.51
2023-12-11T02:49:33.307Z,81.04
2023-12-11T02:52:00.417Z,79.76
2023-12-11T02:54:27.465Z,79.18
2023-12-11T02:56:54.414Z,80.62
2023-12-11T02:59:21.457Z,81.51
2023-12-11T03:01:48.516Z,82.06
2023-12-11T03:04:15.695Z,80.84
2023-12-11T03:06:42.835Z,79.33
2023-12-11T03:09:09.880Z,79.71
2023-12-11T03:11:36.800Z,81.15
2023-12-11T03:14:03.958Z,82.14
2023-12-11T03:16:31.302Z,82.36
2023-12-11T03:18:58.302Z,80.98
2023-12-11T03:21:25.413Z,79.77
2023-12-11T03:23:52.440Z,79.63
2023-12-11T03:26:19.382Z,80.13
2023-12-11T03:28:46.438Z,80.54
2023-12-11T03:31:13.464Z,81.36
2023-12-11T03:33:40.620Z,80.00
2023-12-11T03:36:08.389Z,79.63
2023-12-11T03:38:35.355Z,79.46
2023-12-11T03:41:02.371Z,79.97
2023-12-11T03:43:29.525Z,81.15
2023-12-11T03:45:56.757Z,82.48
2023-12-11T03:48:23.940Z,81.32
2023-12-11T03:50:51.098Z,81.43
2023-12-11T03:53:17.911Z,80.63
2023-12-11T03:55:44.756Z,80.76
2023-12-11T03:58:11.803Z,81.29
2023-12-11T04:00:39.084Z,82.32
2023-12-11T04:03:06.330Z,81.14
2023-12-11T04:05:33.476Z,80.63
2023-12-11T04:08:00.748Z,81.43
2023-12-11T04:10:27.658Z,82.88
2023-12-11T04:12:54.728Z,83.82
2023-12-11T04:15:21.654Z,83.92
2023-12-11T04:17:48.625Z,81.87
2023-12-11T04:20:15.762Z,79.90
2023-12-11T04:22:42.681Z,79.39
2023-12-11T04:25:09.906Z,80.64
2023-12-11T04:27:37.017Z,80.94
2023-12-11T04:30:05.464Z,82.48
2023-12-11T04:32:33.003Z,81.09
2023-12-11T04:35:00.196Z,80.18
2023-12-11T04:37:27.740Z,80.48
2023-12-11T04:39:54.793Z,81.22
2023-12-11T04:42:22.024Z,81.45
2023-12-11T04:44:49.196Z,82.02
2023-12-11T04:47:16.218Z,80.78
2023-12-11T04:49:43.838Z,79.95
2023-12-11T04:52:11.296Z,80.25
2023-12-11T04:54:38.388Z,80.42
2023-12-11T04:57:05.452Z,80.89
2023-12-11T04:59:32.382Z,81.71
2023-12-11T05:01:59.505Z,81.09
2023-12-11T05:04:26.777Z,80.07
2023-12-11T05:06:53.761Z,79.49
2023-12-11T05:09:21.806Z,80.47
2023-12-11T05:11:48.843Z,81.59
2023-12-11T05:14:15.819Z,82.30
2023-12-11T05:16:42.840Z,81.09
2023-12-11T05:19:10.064Z,79.78
2023-12-11T05:21:37.268Z,80.15
2023-12-11T05:24:04.893Z,80.29
2023-12-11T05:26:31.972Z,81.89
2023-12-11T05:29:01.043Z,82.57
2023-12-11T05:31:27.982Z,80.09
2023-12-11T05:33:55.135Z,78.91
2023-12-11T05:36:22.292Z,79.49
2023-12-11T05:38:49.662Z,79.41
2023-12-11T05:41:17.807Z,80.47
2023-12-11T05:43:44.754Z,81.28
2023-12-11T05:46:11.656Z,80.75
2023-12-11T05:48:38.831Z,79.35
2023-12-11T05:51:05.998Z,79.61
2023-12-11T05:53:33.147Z,80.67
2023-12-11T05:56:00.200Z,80.96
2023-12-11T05:58:27.398Z,81.39
2023-12-11T06:00:54.705Z,80.20
2023-12-11T06:03:21.882Z,78.91
2023-12-11T06:05:48.972Z,78.71
2023-12-11T06:08:16.047Z,79.08
2023-12-11T06:10:43.096Z,79.65
2023-12-11T06:13:10.115Z,80.55
2023-12-11T06:15:37.115Z,79.79
2023-12-11T06:18:04.885Z,78.29
2023-12-11T06:20:31.829Z,77.71
2023-12-11T06:22:58.862Z,78.01
2023-12-11T06:25:25.942Z,78.38
2023-12-11T06:27:53.521Z,79.25
2023-12-11T06:30:20.614Z,80.50
2023-12-11T06:32:47.600Z,79.49
2023-12-11T06:35:14.541Z,77.70
2023-12-11T06:37:41.628Z,77.13
2023-12-11T06:40:09.970Z,77.30
2023-12-11T06:42:39.909Z,77.92
2023-12-11T06:45:09.476Z,79.48
2023-12-11T06:47:37.199Z,80.13
2023-12-11T06:50:05.224Z,78.19
2023-12-11T06:52:32.438Z,77.53
2023-12-11T06:54:59.613Z,77.43
2023-12-11T06:57:26.898Z,78.21
2023-12-11T06:59:53.874Z,78.64
2023-12-11T07:02:21.231Z,78.81
2023-12-11T07:04:48.527Z,77.74
2023-12-11T07:07:15.700Z,76.48
2023-12-11T07:09:46.916Z,76.63
2023-12-11T07:12:14.330Z,76.99
2023-12-11T07:14:41.674Z,76.93
2023-12-11T07:17:08.749Z,77.60
2023-12-11T07:19:35.857Z,78.22
2023-12-11T07:22:03.671Z,77.46
2023-12-11T07:24:30.784Z,76.11
2023-12-11T07:26:58.455Z,76.06
2023-12-11T07:29:25.514Z,76.64
2023-12-11T07:31:52.851Z,77.05
2023-12-11T07:34:22.772Z,77.85
2023-12-11T07:36:52.078Z,78.61
2023-12-11T07:39:19.325Z,76.71
2023-12-11T07:41:46.286Z,75.90
2023-12-11T07:44:13.607Z,76.02
2023-12-11T07:46:43.159Z,76.77
2023-12-11T07:49:14.705Z,76.99
2023-12-11T07:51:42.301Z,77.08
2023-12-11T07:54:10.623Z,77.50
2023-12-11T07:56:40.435Z,76.90
2023-12-11T07:59:07.465Z,76.05
2023-12-11T08:01:34.872Z,75.44
2023-12-11T08:04:02.448Z,76.58
2023-12-11T08:06:30.559Z,76.76
2023-12-11T08:08:58.034Z,77.63
2023-12-11T08:11:30.901Z,77.69
2023-12-11T08:13:58.463Z,76.18
2023-12-11T08:16:25.565Z,75.47
2023-12-11T08:18:52.832Z,75.98
2023-12-11T08:21:20.760Z,76.84
2023-12-11T08:23:48.692Z,77.01
2023-12-11T08:26:17.896Z,77.59
2023-12-11T08:28:45.468Z,75.96
2023-12-11T08:31:12.704Z,74.44
2023-12-11T08:33:40.170Z,74.42
2023-12-11T08:36:08.167Z,74.97
2023-12-11T08:38:35.370Z,75.62
2023-12-11T08:41:02.540Z,76.25
2023-12-11T08:43:29.835Z,76.74
2023-12-11T08:45:57.252Z,74.52
2023-12-11T08:48:27.695Z,73.71
2023-12-11T08:50:56.152Z,73.57
2023-12-11T08:53:24.656Z,74.35
2023-12-11T08:55:52.384Z,75.86
2023-12-11T08:58:19.495Z,76.96
2023-12-11T09:00:46.697Z,77.49
2023-12-11T09:03:14.044Z,74.70
2023-12-11T09:05:40.967Z,73.58
2023-12-11T09:08:08.644Z,72.73
2023-12-11T09:10:36.816Z,73.24
2023-12-11T09:13:03.938Z,74.22
2023-12-11T09:15:32.075Z,74.95
2023-12-11T09:17:59.662Z,75.81
2023-12-11T09:20:26.741Z,74.72
2023-12-11T09:22:53.899Z,73.15
2023-12-11T09:25:21.070Z,71.70
2023-12-11T09:27:49.013Z,72.07
2023-12-11T09:30:16.391Z,73.61
2023-12-11T09:32:44.011Z,74.18
2023-12-11T09:35:11.662Z,74.15
2023-12-11T09:37:38.959Z,75.22
2023-12-11T09:40:07.453Z,72.95
2023-12-11T09:42:35.518Z,72.10
2023-12-11T09:45:04.178Z,72.03
2023-12-11T09:47:35.718Z,72.40
2023-12-11T09:50:03.624Z,73.93
2023-12-11T09:52:31.667Z,75.25
2023-12-11T09:54:59.413Z,73.87
2023-12-11T09:57:26.628Z,72.17
2023-12-11T09:59:53.943Z,71.96
2023-12-11T10:02:21.080Z,72.35
2023-12-11T10:05:25.396Z,72.74
2023-12-11T10:07:52.590Z,73.30
2023-12-11T10:10:23.718Z,74.26
2023-12-11T10:12:50.864Z,73.31
2023-12-11T10:15:26.320Z,71.82
2023-12-11T10:18:04.249Z,71.65
2023-12-11T10:20:33.439Z,71.71
2023-12-11T10:23:14.501Z,72.31
2023-12-11T10:25:43.712Z,73.03
2023-12-11T10:28:12.434Z,73.66
2023-12-11T10:30:59.916Z,72.56
2023-12-11T10:33:28.963Z,70.87
2023-12-11T10:36:16.705Z,70.60
2023-12-11T10:38:44.056Z,71.03
2023-12-11T10:41:32.200Z,71.30
2023-12-11T10:44:08.972Z,71.75
2023-12-11T10:46:45.187Z,72.27
2023-12-11T10:49:12.997Z,72.19
2023-12-11T10:51:41.046Z,70.22
2023-12-11T10:54:10.393Z,69.04
2023-12-11T10:56:38.252Z,69.37
2023-12-11T10:59:06.149Z,70.35
2023-12-11T11:01:34.042Z,71.94
2023-12-11T11:04:02.804Z,72.77
2023-12-11T11:06:30.807Z,73.45
2023-12-11T11:09:05.420Z,74.03
2023-12-11T11:11:38.621Z,72.38
2023-12-11T11:14:25.704Z,71.33
2023-12-11T11:16:54.555Z,70.86
2023-12-11T11:19:22.505Z,71.06
2023-12-11T11:29:41.476Z,72.80
2023-12-11T11:32:10.452Z,71.12
2023-12-11T11:42:18.389Z,70.03
2023-12-11T11:44:46.455Z,70.86
2023-12-11T11:47:20.562Z,71.51
2023-12-11T11:49:49.432Z,72.23
2023-12-11T11:52:22.417Z,72.11
2023-12-11T11:54:50.325Z,70.91
2023-12-11T11:57:18.089Z,70.24
2023-12-11T11:59:46.062Z,70.62
2023-12-11T12:02:21.332Z,71.33
2023-12-11T12:04:49.156Z,71.79
2023-12-11T12:07:17.190Z,72.11
2023-12-11T12:17:28.482Z,71.59
2023-12-11T12:19:57.412Z,71.33
2023-12-11T12:22:27.353Z,71.91
2023-12-11T12:24:56.057Z,72.82
2023-12-11T12:27:24.519Z,73.84
2023-12-11T12:29:55.996Z,74.61
2023-12-11T12:32:23.738Z,75.08
2023-12-11T12:34:53.227Z,73.23
2023-12-11T12:37:21.151Z,72.13
2023-12-11T12:39:49.003Z,72.90
2023-12-11T12:42:17.061Z,73.72
2023-12-11T12:44:44.824Z,73.92
2023-12-11T12:55:10.655Z,72.79
2023-12-11T12:57:37.946Z,72.63
2023-12-11T13:00:06.462Z,73.28
2023-12-11T13:02:34.084Z,74.27
2023-12-11T13:05:01.306Z,75.06
2023-12-11T13:07:29.476Z,76.06
2023-12-11T13:09:57.204Z,74.90
2023-12-11T13:12:25.099Z,73.62
2023-12-11T13:14:52.499Z,73.35
2023-12-11T13:17:20.343Z,73.93
2023-12-11T13:19:47.575Z,74.31
2023-12-11T13:22:14.967Z,74.66
2023-12-11T13:24:42.236Z,75.82
2023-12-11T13:27:09.387Z,75.02
2023-12-11T13:29:37.729Z,74.16
2023-12-11T13:32:05.535Z,74.26
2023-12-11T13:34:32.979Z,74.83
2023-12-11T13:37:00.112Z,75.61
2023-12-11T13:39:27.262Z,76.56
2023-12-11T13:41:54.302Z,76.58
2023-12-11T13:44:21.956Z,75.11
2023-12-11T13:46:48.903Z,74.71
2023-12-11T13:49:16.085Z,74.93
2023-12-11T13:51:43.391Z,76.21
2023-12-11T13:54:10.785Z,77.06
2023-12-11T13:56:38.039Z,78.23
2023-12-11T13:59:05.702Z,77.37
2023-12-11T14:01:33.329Z,76.11
2023-12-11T14:04:00.917Z,76.32
2023-12-11T14:06:28.476Z,76.73
2023-12-11T14:08:55.543Z,77.13
2023-12-11T14:11:22.761Z,77.80
2023-12-11T14:13:49.802Z,77.93
2023-12-11T14:16:16.904Z,76.79
2023-12-11T14:18:44.475Z,76.28
2023-12-11T14:21:11.692Z,76.61
2023-12-11T14:23:39.439Z,77.18
2023-12-11T14:26:06.537Z,78.16
2023-12-11T14:28:33.625Z,78.52
2023-12-11T14:31:01.830Z,77.03
2023-12-11T14:33:29.493Z,76.19
2023-12-11T14:35:56.811Z,76.46
2023-12-11T14:38:23.858Z,77.50
2023-12-11T14:40:51.034Z,78.35
2023-12-11T14:43:18.209Z,78.53
2023-12-11T14:45:46.021Z,76.93
2023-12-11T14:48:13.556Z,76.37
2023-12-11T14:50:42.119Z,76.46
2023-12-11T14:53:10.764Z,77.44
2023-12-11T14:55:43.880Z,78.23
2023-12-11T14:58:11.815Z,78.82
2023-12-11T15:00:39.148Z,77.55
2023-12-11T15:03:06.342Z,77.16
2023-12-11T15:05:33.550Z,77.43
2023-12-11T15:08:00.707Z,78.04
2023-12-11T15:10:28.077Z,78.93
2023-12-11T15:12:56.267Z,79.53
2023-12-11T15:15:23.593Z,77.81
2023-12-11T15:17:50.727Z,77.15
2023-12-11T15:20:20.928Z,77.28
2023-12-11T15:22:48.220Z,77.74
2023-12-11T15:25:15.401Z,78.84
2023-12-11T15:27:42.408Z,79.47
2023-12-11T15:30:10.426Z,78.04
2023-12-11T15:32:37.774Z,77.69
2023-12-11T15:35:05.722Z,78.17
2023-12-11T15:37:33.573Z,78.58
2023-12-11T15:40:01.220Z,79.33
2023-12-11T15:42:28.622Z,79.37
2023-12-11T15:44:55.629Z,77.94
2023-12-11T15:47:23.712Z,77.26
2023-12-11T15:49:52.246Z,77.40
2023-12-11T15:52:19.515Z,78.09
2023-12-11T15:54:46.840Z,78.98
2023-12-11T15:57:13.936Z,79.72
2023-12-11T15:59:42.636Z,78.00
2023-12-11T16:02:10.521Z,76.79
2023-12-11T16:04:37.689Z,77.39
2023-12-11T16:07:04.939Z,77.85
2023-12-11T16:09:31.942Z,78.95
2023-12-11T16:11:58.986Z,80.11
2023-12-11T16:14:26.053Z,80.11
2023-12-11T16:16:53.211Z,78.82
2023-12-11T16:19:20.444Z,77.98
2023-12-11T16:21:48.238Z,78.30
2023-12-11T16:24:15.348Z,79.21
2023-12-11T16:26:42.411Z,80.62
2023-12-11T16:29:09.442Z,79.95
2023-12-11T16:31:36.601Z,78.50
2023-12-11T16:34:04.139Z,78.15
2023-12-11T16:36:31.612Z,78.62
2023-12-11T16:38:59.033Z,79.27
2023-12-11T16:41:26.726Z,80.13
2023-12-11T16:43:53.814Z,80.58
2023-12-11T16:46:24.007Z,79.12
2023-12-11T16:48:51.511Z,78.63
2023-12-11T16:51:18.819Z,79.00
2023-12-11T16:53:47.209Z,80.06
2023-12-11T16:56:15.566Z,81.04
2023-12-11T16:58:42.799Z,81.10
2023-12-11T17:01:13.231Z,79.71
2023-12-11T17:03:41.096Z,79.66
2023-12-11T17:06:14.818Z,80.03
2023-12-11T17:08:42.054Z,81.26
2023-12-11T17:11:09.147Z,81.39
2023-12-11T17:13:39.596Z,79.95
2023-12-11T17:16:07.528Z,79.66
2023-12-11T17:18:35.935Z,79.86
2023-12-11T17:21:05.840Z,80.57
2023-12-11T17:23:33.778Z,81.75
2023-12-11T17:26:00.926Z,80.91
2023-12-11T17:28:27.984Z,79.72
2023-12-11T17:30:55.083Z,79.79
2023-12-11T17:33:24.426Z,80.80
2023-12-11T17:35:51.494Z,81.72
2023-12-11T17:38:18.620Z,81.22
2023-12-11T17:40:46.787Z,80.16
2023-12-11T17:43:13.854Z,80.11
2023-12-11T17:45:41.801Z,80.65
2023-12-11T17:48:09.017Z,81.49
2023-12-11T17:50:36.413Z,82.02
2023-12-11T17:53:03.464Z,80.52
2023-12-11T17:55:30.688Z,79.92
2023-12-11T17:57:57.887Z,80.03
2023-12-11T18:00:25.152Z,80.82
2023-12-11T18:02:52.261Z,81.72
2023-12-11T18:05:19.924Z,81.50
2023-12-11T18:07:47.509Z,80.07
2023-12-11T18:10:18.588Z,79.68
2023-12-11T18:12:46.119Z,80.21
2023-12-11T18:15:13.240Z,81.34
2023-12-11T18:17:40.416Z,82.36
2023-12-11T18:20:09.311Z,80.69
2023-12-11T18:22:36.667Z,79.06
2023-12-11T18:25:04.738Z,78.97
2023-12-11T18:27:35.669Z,79.43
2023-12-11T18:30:04.036Z,80.41
2023-12-11T18:32:31.543Z,81.37
2023-12-11T18:35:01.282Z,79.98
2023-12-11T18:37:29.220Z,79.08
2023-12-11T18:39:56.920Z,79.23
2023-12-11T18:42:24.267Z,79.97
2023-12-11T18:44:54.167Z,81.14
2023-12-11T18:47:21.348Z,81.42
2023-12-11T18:49:49.576Z,79.86
2023-12-11T18:52:17.938Z,79.15
2023-12-11T18:54:45.511Z,79.58
2023-12-11T18:57:17.359Z,80.34
2023-12-11T18:59:45.056Z,81.49
2023-12-11T19:02:12.940Z,80.47
2023-12-11T19:04:40.801Z,79.42
2023-12-11T19:07:08.833Z,79.53
2023-12-11T19:09:36.109Z,80.01
2023-12-11T19:12:04.210Z,81.07
2023-12-11T19:14:31.563Z,81.23
2023-12-11T19:16:58.901Z,79.80
2023-12-11T19:19:26.155Z,79.63
2023-12-11T19:21:53.734Z,79.80
2023-12-11T19:24:20.974Z,80.54
2023-12-11T19:26:48.115Z,81.18
2023-12-11T19:29:16.480Z,79.56
2023-12-11T19:31:44.053Z,78.44
2023-12-11T19:34:11.621Z,78.53
2023-12-11T19:36:45.201Z,79.16
2023-12-11T19:39:13.009Z,80.06
2023-12-11T19:41:43.807Z,80.75
2023-12-11T19:44:11.063Z,79.14
2023-12-11T19:46:44.985Z,78.56
2023-12-11T19:49:12.252Z,79.26
2023-12-11T19:51:43.379Z,80.14
2023-12-11T19:54:10.331Z,81.23
2023-12-11T19:56:37.459Z,79.97
2023-12-11T19:59:04.598Z,78.79
2023-12-11T20:01:34.854Z,78.55
2023-12-11T20:04:02.361Z,79.34
2023-12-11T20:06:29.840Z,79.95
2023-12-11T20:08:56.905Z,80.51
2023-12-11T20:11:26.697Z,79.01
2023-12-11T20:13:53.669Z,77.79
2023-12-11T20:16:20.721Z,77.89
2023-12-11T20:18:47.901Z,78.43
2023-12-11T20:21:15.905Z,79.05
2023-12-11T20:23:42.955Z,80.01
2023-12-11T20:26:14.611Z,79.33
2023-12-11T20:28:42.175Z,77.99
2023-12-11T20:31:17.334Z,77.83
2023-12-11T20:33:44.624Z,77.91
2023-12-11T20:36:18.124Z,79.51
2023-12-11T20:38:45.510Z,80.33
2023-12-11T20:41:25.871Z,79.20
2023-12-11T20:43:58.556Z,78.02
2023-12-11T20:46:27.106Z,77.97
2023-12-11T20:48:54.797Z,78.34
2023-12-11T20:51:23.730Z,78.83
2023-12-11T20:53:51.453Z,79.74
2023-12-11T20:56:22.387Z,79.80
2023-12-11T20:58:50.190Z,78.02
2023-12-11T21:01:34.924Z,77.70
2023-12-11T21:04:04.236Z,78.09
2023-12-11T21:06:32.383Z,78.90
2023-12-11T21:09:00.419Z,79.68
2023-12-11T21:11:27.709Z,79.30
2023-12-11T21:13:54.900Z,77.62
2023-12-11T21:16:22.106Z,77.44
2023-12-11T21:18:50.155Z,77.84
2023-12-11T21:21:18.268Z,79.00
2023-12-11T21:23:46.450Z,79.85
2023-12-11T21:26:17.849Z,79.79
2023-12-11T21:28:45.573Z,77.89
2023-12-11T21:31:23.188Z,77.18
2023-12-11T21:33:51.802Z,77.63
2023-12-11T21:36:23.693Z,78.43
2023-12-11T21:38:50.876Z,79.35
2023-12-11T21:41:17.928Z,79.77
2023-12-11T21:43:46.375Z,78.29
2023-12-11T21:46:13.992Z,76.94
2023-12-11T21:48:43.309Z,76.86
2023-12-11T21:51:11.240Z,77.25
2023-12-11T21:54:37.621Z,79.25
2023-12-11T21:57:05.437Z,80.02
2023-12-11T21:59:39.766Z,78.50
2023-12-11T22:02:12.970Z,77.32
2023-12-11T22:04:41.075Z,77.52
2023-12-11T22:07:08.913Z,78.34
2023-12-11T22:09:36.706Z,79.03
2023-12-11T22:12:05.289Z,79.36
2023-12-11T22:14:33.155Z,79.04
2023-12-11T22:17:00.920Z,77.69
2023-12-11T22:19:28.843Z,77.27
2023-12-11T22:21:56.784Z,77.93
2023-12-11T22:24:24.865Z,78.70
2023-12-11T22:26:53.228Z,79.54
2023-12-11T22:29:20.964Z,79.62
2023-12-11T22:31:49.676Z,77.93
2023-12-11T22:34:17.735Z,77.82
2023-12-11T22:36:45.591Z,78.24
2023-12-11T22:39:13.360Z,78.99
2023-12-11T22:41:41.114Z,80.05
2023-12-11T22:44:08.908Z,78.90
2023-12-11T22:46:37.007Z,77.97
2023-12-11T22:49:04.979Z,77.94
2023-12-11T22:51:32.804Z,78.38
2023-12-11T22:54:00.440Z,79.04
2023-12-11T22:56:28.094Z,79.79
2023-12-11T22:58:55.793Z,78.64
2023-12-11T23:01:23.628Z,77.47
2023-12-11T23:03:51.582Z,77.50
2023-12-11T23:06:19.394Z,77.93
2023-12-11T23:08:47.343Z,78.60
2023-12-11T23:11:15.120Z,79.82
2023-12-11T23:13:42.866Z,78.66
2023-12-11T23:16:10.681Z,77.63
2023-12-11T23:18:38.596Z,78.11
2023-12-11T23:21:06.878Z,78.57
2023-12-11T23:23:34.657Z,79.70
2023-12-11T23:26:05.198Z,80.66
2023-12-11T23:28:33.612Z,79.19
2023-12-11T23:31:01.435Z,77.81
2023-12-11T23:33:29.255Z,77.88
2023-12-11T23:35:57.454Z,78.52
2023-12-11T23:38:25.220Z,78.97
2023-12-11T23:40:53.187Z,80.24
2023-12-11T23:43:20.871Z,78.91
2023-12-11T23:45:48.824Z,77.80
2023-12-11T23:48:16.787Z,78.45
2023-12-11T23:58:28.478Z,79.23
